Time;durP1;ratioP1;P1;durP2;ratioP2;P2;SDS_P1;SDS_P2;PMS_P1;PMS_P2;Temp;Humidity;BMP_temperature;BMP_pressure;BME280_temperature;BME280_humidity;BME280_pressure;Samples;Min_cycle;Max_cycle;Signal;HPM_P1;HPM_P2
2022/03/11 00:01:17;;;;;;;7.25;5.07;;;1.20;78.30;;;;;;5030915;28;20205;-75
2022/03/11 00:03:44;;;;;;;7.15;5.28;;;1.10;77.90;;;;;;5030436;28;20201;-75
2022/03/11 00:06:10;;;;;;;7.78;5.00;;;1.00;77.90;;;;;;5030480;28;20575;-75
2022/03/11 00:08:37;;;;;;;8.85;5.18;;;1.00;77.80;;;;;;5029930;28;20205;-75
2022/03/11 00:11:06;;;;;;;7.13;5.05;;;1.00;77.90;;;;;;5030891;28;20602;-76
2022/03/11 00:13:32;;;;;;;7.45;4.72;;;1.00;77.80;;;;;;5030217;28;20642;-75
2022/03/11 00:15:59;;;;;;;5.90;4.53;;;1.00;77.90;;;;;;5029980;28;20709;-75
2022/03/11 00:18:26;;;;;;;7.82;5.22;;;0.90;78.50;;;;;;5029596;28;20296;-75
2022/03/11 00:20:53;;;;;;;8.65;5.25;;;0.90;79.30;;;;;;5030682;28;20213;-75
2022/03/11 00:23:20;;;;;;;7.30;4.45;;;0.80;79.90;;;;;;5030342;28;20564;-75
2022/03/11 00:25:47;;;;;;;6.30;4.80;;;0.80;79.80;;;;;;5030298;28;20226;-75
2022/03/11 00:28:15;;;;;;;7.28;4.82;;;0.70;80.50;;;;;;5028947;28;20206;-75
2022/03/11 00:30:42;;;;;;;6.97;5.05;;;0.70;79.80;;;;;;5029333;28;20210;-75
2022/03/11 00:33:08;;;;;;;7.45;4.95;;;0.70;80.10;;;;;;5029985;28;20256;-75
2022/03/11 00:35:35;;;;;;;8.15;4.85;;;0.60;80.10;;;;;;5029904;28;20225;-75
2022/03/11 00:38:02;;;;;;;6.97;5.45;;;0.70;80.00;;;;;;5029276;28;20579;-74
2022/03/11 00:40:29;;;;;;;7.45;5.05;;;0.60;80.70;;;;;;5030110;28;20221;-75
2022/03/11 00:42:56;;;;;;;5.20;4.55;;;0.60;80.70;;;;;;5030167;28;20276;-75
2022/03/11 00:45:24;;;;;;;6.03;4.90;;;0.60;80.80;;;;;;5029419;28;20287;-75
2022/03/11 00:47:51;;;;;;;6.28;4.57;;;0.60;80.90;;;;;;5029324;28;20209;-75
2022/03/11 00:50:18;;;;;;;5.53;4.50;;;0.70;80.90;;;;;;5029443;28;20209;-74
2022/03/11 00:52:44;;;;;;;7.38;4.30;;;0.70;81.00;;;;;;5029952;28;20216;-74
2022/03/11 00:55:12;;;;;;;8.10;5.57;;;0.70;81.00;;;;;;5029187;28;20652;-74
2022/03/11 00:57:39;;;;;;;6.10;5.05;;;0.70;80.90;;;;;;5029497;28;20202;-74
2022/03/11 01:00:07;;;;;;;5.78;4.80;;;0.60;80.90;;;;;;5029893;28;20202;-74
2022/03/11 01:02:36;;;;;;;7.00;4.97;;;0.60;81.50;;;;;;5029188;28;20202;-74
2022/03/11 01:05:05;;;;;;;7.20;5.28;;;0.60;81.70;;;;;;5029427;28;20229;-74
2022/03/11 01:07:32;;;;;;;7.72;5.07;;;0.60;82.00;;;;;;5028389;28;20209;-74
2022/03/11 01:09:59;;;;;;;7.20;5.22;;;0.50;82.60;;;;;;5029451;28;20208;-74
2022/03/11 01:12:26;;;;;;;8.93;5.75;;;0.60;83.00;;;;;;5029175;28;20209;-74
2022/03/11 01:14:53;;;;;;;7.65;5.18;;;0.60;82.70;;;;;;5029452;28;20241;-74
2022/03/11 01:17:20;;;;;;;9.80;5.82;;;0.60;82.90;;;;;;5028202;28;20210;-75
2022/03/11 01:19:48;;;;;;;7.95;5.30;;;0.60;83.50;;;;;;5029361;28;20208;-74
2022/03/11 01:22:15;;;;;;;6.72;5.72;;;0.50;83.60;;;;;;5028947;28;20209;-74
2022/03/11 01:24:42;;;;;;;6.97;4.70;;;0.50;83.70;;;;;;5028951;28;20226;-74
2022/03/11 01:27:08;;;;;;;6.93;5.20;;;0.50;83.90;;;;;;5028580;28;20210;-74
2022/03/11 01:29:35;;;;;;;6.38;5.05;;;0.60;83.70;;;;;;5028834;28;20585;-74
2022/03/11 01:32:02;;;;;;;11.57;5.80;;;0.50;83.70;;;;;;5029037;28;20244;-74
2022/03/11 01:34:29;;;;;;;6.22;5.03;;;0.50;84.30;;;;;;5028671;28;20723;-74
2022/03/11 01:36:57;;;;;;;7.97;5.30;;;0.50;84.40;;;;;;5028650;28;20213;-74
2022/03/11 01:39:24;;;;;;;6.55;5.00;;;0.40;84.50;;;;;;5028750;28;20210;-74
2022/03/11 01:41:52;;;;;;;7.93;5.78;;;0.40;84.90;;;;;;5028616;28;20206;-74
2022/03/11 01:44:19;;;;;;;7.88;5.10;;;0.40;85.20;;;;;;5028327;28;20225;-74
2022/03/11 01:46:45;;;;;;;11.07;7.22;;;0.40;86.00;;;;;;5028148;28;20206;-74
2022/03/11 01:49:12;;;;;;;9.52;5.70;;;0.40;86.10;;;;;;5028646;28;20209;-74
2022/03/11 01:51:41;;;;;;;9.95;6.05;;;0.40;86.50;;;;;;5028499;28;20221;-74
2022/03/11 01:54:09;;;;;;;8.80;5.68;;;0.40;86.60;;;;;;5028456;28;20701;-74
2022/03/11 01:56:37;;;;;;;9.88;6.15;;;0.40;86.40;;;;;;5027882;28;20296;-74
2022/03/11 01:59:05;;;;;;;11.75;6.20;;;0.30;86.60;;;;;;5028429;28;20237;-74
2022/03/11 02:01:32;;;;;;;9.45;6.05;;;0.30;87.10;;;;;;5028325;28;20586;-75
2022/03/11 02:03:59;;;;;;;9.13;7.05;;;0.30;87.10;;;;;;5028213;28;20229;-75
2022/03/11 02:06:27;;;;;;;9.45;6.85;;;0.20;87.50;;;;;;5028200;28;20202;-74
2022/03/11 02:08:55;;;;;;;12.15;6.28;;;0.20;87.70;;;;;;5027668;28;20216;-74
2022/03/11 02:11:23;;;;;;;8.73;6.28;;;0.20;87.80;;;;;;5028043;28;20197;-74
2022/03/11 02:13:52;;;;;;;7.70;6.35;;;0.20;88.00;;;;;;5027960;28;20696;-74
2022/03/11 02:16:21;;;;;;;11.32;6.68;;;0.20;88.40;;;;;;5028026;28;20202;-74
2022/03/11 02:18:48;;;;;;;8.57;6.50;;;0.10;88.80;;;;;;5028073;28;20232;-74
2022/03/11 02:21:16;;;;;;;9.18;7.18;;;0.00;88.90;;;;;;5117967;23;20212;-92
2022/03/11 02:26:10;;;;;;;13.10;8.00;;;0.00;89.20;;;;;;5081872;22;20254;-79
2022/03/11 02:28:37;;;;;;;11.73;7.70;;;0.00;89.70;;;;;;5075097;28;20821;-83
2022/03/11 02:31:04;;;;;;;11.75;8.55;;;-0.10;89.70;;;;;;5075668;28;20296;-80
2022/03/11 02:33:31;;;;;;;11.80;8.60;;;-0.10;90.00;;;;;;5076798;28;20797;-81
2022/03/11 02:35:58;;;;;;;10.90;7.93;;;-0.20;90.20;;;;;;5057325;28;20720;-82
2022/03/11 02:38:25;;;;;;;10.27;7.80;;;-0.20;90.30;;;;;;5059178;28;20201;-81
2022/03/11 02:40:53;;;;;;;12.80;7.60;;;-0.20;90.60;;;;;;5062738;28;20209;-82
2022/03/11 02:43:20;;;;;;;12.40;8.25;;;-0.20;90.80;;;;;;5063034;28;20224;-82
2022/03/11 02:45:47;;;;;;;11.70;8.70;;;-0.20;91.00;;;;;;5063616;28;20228;-83
2022/03/11 02:48:14;;;;;;;11.52;7.32;;;-0.20;91.00;;;;;;5062560;28;20216;-83
2022/03/11 02:50:40;;;;;;;12.05;9.10;;;-0.20;91.10;;;;;;5063156;28;20228;-83
2022/03/11 02:53:07;;;;;;;15.07;9.65;;;-0.20;91.20;;;;;;5061950;28;20264;-83
2022/03/11 02:55:34;;;;;;;16.23;10.02;;;-0.20;91.30;;;;;;5062785;28;20231;-83
2022/03/11 02:58:03;;;;;;;13.63;9.20;;;-0.10;92.00;;;;;;5062685;28;20215;-82
2022/03/11 03:00:29;;;;;;;13.85;9.65;;;0.00;91.40;;;;;;5062921;28;20201;-83
2022/03/11 03:02:56;;;;;;;12.60;9.27;;;-0.10;91.60;;;;;;5064093;28;20209;-83
2022/03/11 03:05:23;;;;;;;14.95;9.85;;;-0.10;91.20;;;;;;5062664;28;20243;-83
2022/03/11 03:07:50;;;;;;;11.35;8.77;;;-0.10;91.40;;;;;;5063534;28;20203;-83
2022/03/11 03:10:17;;;;;;;12.10;8.27;;;-0.20;91.50;;;;;;5063755;28;20209;-83
2022/03/11 03:12:43;;;;;;;12.65;8.30;;;-0.20;91.60;;;;;;5064195;28;20201;-82
2022/03/11 03:15:11;;;;;;;13.43;8.70;;;-0.20;91.80;;;;;;5063687;28;20721;-83
2022/03/11 03:17:38;;;;;;;13.20;9.30;;;-0.30;91.80;;;;;;5062559;28;20201;-82
2022/03/11 03:20:08;;;;;;;14.30;9.55;;;-0.30;91.80;;;;;;5063122;28;20208;-83
2022/03/11 03:22:35;;;;;;;13.50;9.63;;;-0.20;91.80;;;;;;5063027;28;20205;-83
2022/03/11 03:25:02;;;;;;;16.00;9.52;;;-0.30;92.10;;;;;;5062902;28;20225;-82
2022/03/11 03:27:29;;;;;;;18.15;11.02;;;-0.30;92.20;;;;;;5061714;28;20611;-83
2022/03/11 03:29:56;;;;;;;13.63;10.73;;;-0.20;93.20;;;;;;5063050;28;20209;-83
2022/03/11 03:32:24;;;;;;;20.17;12.05;;;-0.10;93.10;;;;;;5062966;28;20212;-83
2022/03/11 03:34:51;;;;;;;16.67;10.68;;;-0.10;93.30;;;;;;5062530;28;20221;-83
2022/03/11 03:37:18;;;;;;;17.73;11.25;;;0.00;92.90;;;;;;5062401;28;20201;-83
2022/03/11 03:39:45;;;;;;;15.18;11.85;;;0.00;92.80;;;;;;5062952;28;20216;-83
2022/03/11 03:42:12;;;;;;;15.43;10.52;;;0.00;92.70;;;;;;5062936;28;20227;-84
2022/03/11 03:44:39;;;;;;;19.23;11.52;;;0.00;92.70;;;;;;5061817;28;20221;-82
2022/03/11 03:47:06;;;;;;;14.48;11.20;;;0.00;92.60;;;;;;5062679;28;20209;-82
2022/03/11 03:49:34;;;;;;;15.85;10.90;;;0.00;92.50;;;;;;5062650;28;20197;-83
2022/03/11 03:52:01;;;;;;;17.33;11.02;;;-0.10;92.70;;;;;;5062092;28;20209;-83
2022/03/11 03:54:28;;;;;;;16.48;12.07;;;-0.10;93.00;;;;;;5063039;28;20268;-83
2022/03/11 03:56:55;;;;;;;17.35;11.27;;;-0.10;93.10;;;;;;5061449;28;20777;-82
2022/03/11 03:59:24;;;;;;;16.60;11.48;;;-0.10;92.80;;;;;;5061691;28;20200;-83
2022/03/11 04:01:51;;;;;;;19.52;10.90;;;-0.10;93.40;;;;;;5061890;28;20215;-83
2022/03/11 04:04:18;;;;;;;20.88;12.80;;;-0.10;93.40;;;;;;5063898;28;20263;-84
2022/03/11 04:06:46;;;;;;;15.85;12.32;;;-0.10;93.50;;;;;;5065179;28;20205;-84
2022/03/11 04:09:12;;;;;;;18.50;12.32;;;-0.10;93.60;;;;;;5066490;28;20201;-83
2022/03/11 04:11:40;;;;;;;24.13;13.75;;;-0.10;93.70;;;;;;5065844;28;20289;-84
2022/03/11 04:14:07;;;;;;;17.20;12.55;;;-0.20;93.60;;;;;;5065570;28;20243;-83
2022/03/11 04:16:35;;;;;;;19.55;13.05;;;-0.10;93.60;;;;;;5065975;28;20221;-83
2022/03/11 04:19:01;;;;;;;19.80;13.48;;;-0.20;93.60;;;;;;5065500;28;20264;-83
2022/03/11 04:21:28;;;;;;;19.25;12.50;;;-0.10;93.50;;;;;;5066518;28;20209;-83
2022/03/11 04:23:57;;;;;;;18.20;13.00;;;-0.20;93.80;;;;;;5065201;28;20205;-83
2022/03/11 04:26:24;;;;;;;18.50;11.98;;;-0.20;93.80;;;;;;5056613;28;20227;-82
2022/03/11 04:28:51;;;;;;;21.92;13.20;;;-0.10;93.90;;;;;;5056240;28;20255;-83
2022/03/11 04:31:17;;;;;;;19.45;13.13;;;-0.10;93.80;;;;;;5056353;28;20564;-81
2022/03/11 04:33:44;;;;;;;19.10;13.45;;;-0.10;93.70;;;;;;5056219;28;20200;-82
2022/03/11 04:36:12;;;;;;;20.08;12.88;;;-0.10;93.70;;;;;;5062067;28;20212;-81
2022/03/11 04:38:39;;;;;;;19.33;12.98;;;-0.20;93.90;;;;;;5067313;28;20566;-83
2022/03/11 04:41:07;;;;;;;21.77;13.00;;;-0.20;94.30;;;;;;5065436;28;20197;-82
2022/03/11 04:43:34;;;;;;;18.08;12.98;;;-0.20;93.90;;;;;;5061576;28;20205;-80
2022/03/11 04:46:01;;;;;;;23.48;14.18;;;-0.20;93.90;;;;;;5069480;28;20199;-80
2022/03/11 04:48:28;;;;;;;20.27;13.40;;;-0.20;93.90;;;;;;5077150;28;20208;-81
2022/03/11 04:50:56;;;;;;;20.08;13.52;;;-0.20;93.70;;;;;;5065649;28;20236;-81
2022/03/11 04:53:23;;;;;;;17.13;12.75;;;-0.20;93.70;;;;;;5066371;28;20199;-81
2022/03/11 04:55:49;;;;;;;23.35;13.05;;;-0.20;93.70;;;;;;5062970;28;20243;-81
2022/03/11 04:58:17;;;;;;;23.30;14.23;;;-0.20;93.50;;;;;;5054574;28;20197;-82
2022/03/11 05:00:44;;;;;;;20.40;13.57;;;-0.20;93.50;;;;;;5054803;28;20201;-82
2022/03/11 05:03:11;;;;;;;21.17;14.27;;;-0.20;93.40;;;;;;5054650;28;20563;-81
2022/03/11 05:05:38;;;;;;;21.90;14.02;;;-0.20;93.50;;;;;;5054919;28;20279;-82
2022/03/11 05:08:05;;;;;;;15.75;12.35;;;-0.20;93.50;;;;;;5053649;28;20570;-83
2022/03/11 05:10:32;;;;;;;17.60;12.98;;;-0.20;93.40;;;;;;5054918;28;20197;-83
2022/03/11 05:12:59;;;;;;;16.95;12.50;;;-0.30;93.40;;;;;;5055714;28;20201;-83
2022/03/11 05:15:27;;;;;;;21.55;13.10;;;-0.30;93.40;;;;;;5055131;28;20231;-80
2022/03/11 05:17:54;;;;;;;17.88;13.23;;;-0.30;93.50;;;;;;5061083;28;20232;-81
2022/03/11 05:20:21;;;;;;;18.88;13.10;;;-0.40;93.50;;;;;;5059880;28;20209;-81
2022/03/11 05:22:47;;;;;;;19.25;13.55;;;-0.40;93.30;;;;;;5065060;28;20203;-77
2022/03/11 05:25:14;;;;;;;20.30;13.40;;;-0.40;93.40;;;;;;5068002;28;20232;-79
2022/03/11 05:27:41;;;;;;;17.58;13.02;;;-0.40;93.40;;;;;;5069369;28;20193;-79
2022/03/11 05:30:09;;;;;;;18.80;12.95;;;-0.40;93.30;;;;;;5067863;28;20209;-78
2022/03/11 05:32:42;;;;;;;21.13;12.93;;;-0.40;93.30;;;;;;5068172;28;20201;-78
2022/03/11 05:35:09;;;;;;;18.75;12.55;;;-0.40;93.20;;;;;;5068884;28;20244;-78
2022/03/11 05:37:36;;;;;;;21.45;13.30;;;-0.40;93.00;;;;;;5068552;28;20515;-79
2022/03/11 05:40:04;;;;;;;17.95;13.35;;;-0.40;92.90;;;;;;5068773;28;20196;-78
2022/03/11 05:42:30;;;;;;;18.00;12.50;;;-0.40;92.90;;;;;;5070024;28;20592;-79
2022/03/11 05:44:57;;;;;;;16.58;14.13;;;-0.50;93.30;;;;;;5068837;28;20217;-78
2022/03/11 05:47:24;;;;;;;18.48;13.23;;;-0.60;93.20;;;;;;5068764;28;20215;-79
2022/03/11 05:49:52;;;;;;;17.30;12.15;;;-0.70;93.50;;;;;;5069292;28;20206;-79
2022/03/11 05:52:19;;;;;;;19.02;13.55;;;-0.80;94.10;;;;;;5068796;28;20678;-79
2022/03/11 05:54:45;;;;;;;20.50;13.00;;;-0.90;93.80;;;;;;5067852;28;20221;-79
2022/03/11 05:57:12;;;;;;;20.50;13.20;;;-0.90;94.10;;;;;;5067829;28;20225;-79
2022/03/11 05:59:39;;;;;;;21.52;14.27;;;-1.00;94.20;;;;;;5068962;28;20201;-79
2022/03/11 06:02:06;;;;;;;25.42;15.02;;;-1.00;94.10;;;;;;5068956;28;20205;-79
2022/03/11 06:04:33;;;;;;;28.50;16.67;;;-1.00;94.20;;;;;;5069373;28;20217;-79
2022/03/11 06:07:01;;;;;;;21.98;14.52;;;-1.00;94.40;;;;;;5068588;28;20207;-79
2022/03/11 06:09:28;;;;;;;24.08;16.48;;;-1.00;94.30;;;;;;5068328;28;20230;-79
2022/03/11 06:11:55;;;;;;;23.75;14.38;;;-1.00;94.40;;;;;;5068324;28;20232;-78
2022/03/11 06:14:21;;;;;;;20.95;13.85;;;-1.00;94.40;;;;;;5068213;28;20243;-78
2022/03/11 06:16:48;;;;;;;21.13;15.05;;;-1.00;94.40;;;;;;5067811;28;20252;-78
2022/03/11 06:19:15;;;;;;;25.38;13.52;;;-1.00;94.40;;;;;;5068475;28;20292;-78
2022/03/11 06:21:42;;;;;;;22.73;13.70;;;-1.00;94.50;;;;;;5068602;28;20204;-77
2022/03/11 06:24:10;;;;;;;22.98;13.25;;;-1.00;94.50;;;;;;5068010;28;20243;-79
2022/03/11 06:26:37;;;;;;;22.75;13.45;;;-0.90;94.50;;;;;;5065575;28;20185;-78
2022/03/11 06:29:04;;;;;;;18.70;12.27;;;-0.90;94.50;;;;;;5052216;28;20219;-77
2022/03/11 06:31:30;;;;;;;20.48;14.18;;;-0.80;94.40;;;;;;5056061;28;20215;-78
2022/03/11 06:33:59;;;;;;;19.48;13.20;;;-0.70;94.20;;;;;;5063251;28;20601;-77
2022/03/11 06:36:28;;;;;;;18.85;13.77;;;-0.70;94.20;;;;;;5074320;28;20247;-78
2022/03/11 06:38:55;;;;;;;21.52;13.00;;;-0.60;94.30;;;;;;5071834;28;20215;-77
2022/03/11 06:41:23;;;;;;;21.15;14.50;;;-0.50;95.20;;;;;;5075893;28;20189;-77
2022/03/11 06:43:50;;;;;;;17.33;12.60;;;-0.50;95.00;;;;;;5075535;28;20197;-78
2022/03/11 06:46:17;;;;;;;19.02;11.20;;;-0.40;94.40;;;;;;5075025;28;20181;-78
2022/03/11 06:48:44;;;;;;;15.98;10.18;;;-0.30;93.80;;;;;;5072377;28;20209;-77
2022/03/11 06:51:10;;;;;;;18.58;10.82;;;-0.30;92.60;;;;;;5070113;28;20193;-79
2022/03/11 06:53:37;;;;;;;17.50;10.90;;;-0.20;92.20;;;;;;5070782;28;20207;-77
2022/03/11 06:56:05;;;;;;;15.13;10.55;;;0.00;92.10;;;;;;5055732;28;20233;-75
2022/03/11 06:58:34;;;;;;;16.25;11.48;;;0.20;91.90;;;;;;5050392;28;20247;-76
2022/03/11 07:01:00;;;;;;;12.70;8.75;;;0.50;91.10;;;;;;5050565;28;20243;-74
2022/03/11 07:03:27;;;;;;;15.45;8.43;;;0.80;90.10;;;;;;5068628;28;20688;-76
2022/03/11 07:05:54;;;;;;;12.68;8.88;;;1.10;87.50;;;;;;5071846;28;20223;-77
2022/03/11 07:08:21;;;;;;;13.88;8.02;;;1.50;87.10;;;;;;5071584;28;20200;-77
2022/03/11 07:10:47;;;;;;;11.32;7.47;;;2.00;84.90;;;;;;5071487;28;20204;-77
2022/03/11 07:13:14;;;;;;;12.85;7.68;;;2.30;82.60;;;;;;5070369;28;20200;-77
2022/03/11 07:15:42;;;;;;;19.17;8.27;;;2.60;82.00;;;;;;5071371;28;20584;-77
2022/03/11 07:18:09;;;;;;;10.90;7.80;;;3.20;81.20;;;;;;5072047;28;20211;-77
2022/03/11 07:20:35;;;;;;;16.10;8.18;;;3.70;79.80;;;;;;5073975;28;20211;-77
2022/03/11 07:23:02;;;;;;;10.57;8.27;;;4.30;78.60;;;;;;5072975;28;20222;-77
2022/03/11 07:25:29;;;;;;;12.90;8.60;;;4.60;77.40;;;;;;5072967;28;20797;-77
2022/03/11 07:27:56;;;;;;;13.25;9.00;;;5.10;76.80;;;;;;5072468;28;20205;-77
2022/03/11 07:30:23;;;;;;;12.18;8.10;;;5.30;74.70;;;;;;5073637;28;20204;-77
2022/03/11 07:32:52;;;;;;;13.95;10.18;;;5.50;75.50;;;;;;5073124;28;20204;-77
2022/03/11 07:35:19;;;;;;;11.15;7.75;;;6.00;74.30;;;;;;5074109;28;20230;-77
2022/03/11 07:37:46;;;;;;;14.95;9.05;;;6.50;72.60;;;;;;5073759;28;20227;-76
2022/03/11 07:40:14;;;;;;;11.25;9.32;;;6.70;71.60;;;;;;5079779;28;20227;-76
2022/03/11 07:42:43;;;;;;;13.73;8.70;;;7.20;71.50;;;;;;5079189;28;20711;-77
2022/03/11 07:45:12;;;;;;;11.57;8.75;;;7.50;70.40;;;;;;5079108;28;20224;-77
2022/03/11 07:47:40;;;;;;;12.40;8.93;;;7.80;69.10;;;;;;5077110;28;20200;-77
2022/03/11 07:50:11;;;;;;;13.85;9.68;;;7.90;68.50;;;;;;5076784;28;20258;-77
2022/03/11 07:52:39;;;;;;;10.57;9.02;;;8.50;68.60;;;;;;5077434;28;20262;-77
2022/03/11 07:55:06;;;;;;;13.48;8.85;;;9.00;67.30;;;;;;5076513;28;20227;-76
2022/03/11 07:57:35;;;;;;;14.07;8.50;;;9.50;67.70;;;;;;5073377;28;20733;-75
2022/03/11 08:00:04;;;;;;;12.63;9.20;;;9.90;64.80;;;;;;5066052;28;20227;-76
2022/03/11 08:02:32;;;;;;;12.85;8.52;;;9.90;64.30;;;;;;5051798;28;20225;-76
2022/03/11 08:05:00;;;;;;;15.60;9.57;;;10.30;62.60;;;;;;5052055;28;20229;-75
2022/03/11 08:07:29;;;;;;;12.45;9.85;;;10.50;61.70;;;;;;5051446;28;20201;-75
2022/03/11 08:09:56;;;;;;;15.45;10.05;;;10.20;62.20;;;;;;5052106;28;20229;-75
2022/03/11 08:12:24;;;;;;;10.48;9.20;;;10.50;62.70;;;;;;5052545;28;20624;-76
2022/03/11 08:14:51;;;;;;;13.65;9.32;;;10.80;62.40;;;;;;5055380;28;20229;-75
2022/03/11 08:17:18;;;;;;;12.80;10.40;;;11.40;62.90;;;;;;5071663;28;20220;-75
2022/03/11 08:19:45;;;;;;;13.97;10.53;;;11.90;61.90;;;;;;5072634;28;20284;-76
2022/03/11 08:22:12;;;;;;;16.10;10.83;;;12.40;61.50;;;;;;5072190;28;20470;-76
2022/03/11 08:24:40;;;;;;;16.07;11.07;;;12.90;61.00;;;;;;5071987;28;20478;-76
2022/03/11 08:27:11;;;;;;;11.80;10.60;;;13.20;60.70;;;;;;5072009;28;20455;-76
2022/03/11 08:29:38;;;;;;;12.90;10.43;;;13.80;59.70;;;;;;5072290;28;20459;-76
2022/03/11 08:32:06;;;;;;;13.47;11.67;;;13.90;60.20;;;;;;5072775;28;20454;-76
2022/03/11 08:34:33;;;;;;;15.53;11.47;;;13.90;59.40;;;;;;5072341;28;20508;-76
2022/03/11 08:37:00;;;;;;;14.80;10.90;;;14.20;59.10;;;;;;5070855;28;20512;-76
2022/03/11 08:39:27;;;;;;;14.57;11.20;;;14.00;59.40;;;;;;5072474;28;20477;-76
2022/03/11 08:41:56;;;;;;;12.57;11.20;;;14.30;59.20;;;;;;5071472;28;20488;-77
2022/03/11 08:44:23;;;;;;;13.03;10.40;;;14.40;59.10;;;;;;5071885;28;20566;-76
2022/03/11 08:46:50;;;;;;;12.80;11.30;;;14.70;58.00;;;;;;5071689;28;20459;-76
2022/03/11 08:49:17;;;;;;;14.40;10.70;;;14.60;58.10;;;;;;5072473;28;20774;-76
2022/03/11 08:51:44;;;;;;;12.47;10.93;;;14.90;57.60;;;;;;5071986;28;20498;-77
2022/03/11 08:54:11;;;;;;;15.80;11.40;;;14.90;57.00;;;;;;5077767;28;20506;-77
2022/03/11 08:56:40;;;;;;;12.80;10.50;;;15.30;57.20;;;;;;5078892;28;20510;-75
2022/03/11 08:59:08;;;;;;;14.37;10.33;;;15.30;56.70;;;;;;5073095;28;20950;-77
2022/03/11 09:01:35;;;;;;;12.70;10.90;;;15.70;56.60;;;;;;5074246;28;20498;-77
2022/03/11 09:04:01;;;;;;;15.67;11.30;;;15.90;56.20;;;;;;5072004;28;20603;-76
2022/03/11 09:06:29;;;;;;;14.57;12.27;;;15.90;56.30;;;;;;5070425;28;20777;-76
2022/03/11 09:08:55;;;;;;;13.10;11.00;;;16.60;55.60;;;;;;5070190;28;20462;-77
2022/03/11 09:11:22;;;;;;;12.57;11.23;;;17.00;55.80;;;;;;5070695;28;20477;-75
2022/03/11 09:13:49;;;;;;;12.13;10.37;;;17.20;55.30;;;;;;5070218;28;20968;-76
2022/03/11 09:16:17;;;;;;;12.57;11.17;;;17.50;54.40;;;;;;5070918;28;20482;-76
2022/03/11 09:18:44;;;;;;;13.40;10.90;;;17.80;54.40;;;;;;5071486;28;20459;-76
2022/03/11 09:21:12;;;;;;;13.17;10.67;;;18.40;53.60;;;;;;5070372;28;20792;-76
2022/03/11 09:23:39;;;;;;;11.87;10.67;;;18.90;53.00;;;;;;5071426;28;20466;-76
2022/03/11 09:26:06;;;;;;;12.50;10.10;;;19.50;51.80;;;;;;5070296;28;20561;-77
2022/03/11 09:28:32;;;;;;;10.90;9.90;;;19.30;51.90;;;;;;5069559;28;20478;-76
2022/03/11 09:31:01;;;;;;;14.00;10.40;;;19.10;51.00;;;;;;5070764;28;20459;-77
2022/03/11 09:33:29;;;;;;;11.83;10.13;;;18.30;51.40;;;;;;5070684;28;20458;-77
2022/03/11 09:35:55;;;;;;;14.13;10.10;;;18.50;52.90;;;;;;5069659;28;20486;-77
2022/03/11 09:38:22;;;;;;;10.80;9.43;;;19.20;52.40;;;;;;5069880;28;20486;-75
2022/03/11 09:40:52;;;;;;;10.80;9.47;;;19.50;50.50;;;;;;5070413;28;20455;-76
2022/03/11 09:43:20;;;;;;;11.47;10.40;;;19.50;51.00;;;;;;5070096;28;20463;-77
2022/03/11 09:45:47;;;;;;;10.93;9.83;;;19.70;51.10;;;;;;5074428;28;20609;-78
2022/03/11 09:48:16;;;;;;;12.97;9.53;;;20.00;49.70;;;;;;5075432;28;20466;-78
2022/03/11 09:50:44;;;;;;;13.23;9.47;;;20.10;49.90;;;;;;5076384;28;20469;-77
2022/03/11 09:53:12;;;;;;;15.47;10.27;;;20.20;48.70;;;;;;5074678;28;20957;-77
2022/03/11 09:55:40;;;;;;;9.73;8.73;;;20.00;48.30;;;;;;5074174;28;20482;-78
2022/03/11 09:58:07;;;;;;;10.33;9.00;;;20.20;50.00;;;;;;5074520;28;21009;-77
2022/03/11 10:00:33;;;;;;;10.10;8.83;;;20.50;48.90;;;;;;5075156;28;20458;-78
2022/03/11 10:03:00;;;;;;;11.90;8.43;;;21.00;49.50;;;;;;5073783;28;20501;-77
2022/03/11 10:05:47;;;;;;;10.23;9.03;;;21.40;48.20;;;;;;5077465;28;20478;-78
2022/03/11 10:08:14;;;;;;;11.70;8.83;;;21.40;48.10;;;;;;5075790;28;20955;-78
2022/03/11 10:10:42;;;;;;;10.20;9.20;;;21.50;48.80;;;;;;5073560;28;20458;-77
2022/03/11 10:13:11;;;;;;;10.57;8.63;;;21.20;47.30;;;;;;5053059;28;20975;-77
2022/03/11 10:15:38;;;;;;;9.90;8.00;;;20.70;47.60;;;;;;5054442;28;20484;-78
2022/03/11 10:18:08;;;;;;;10.07;8.40;;;20.70;48.80;;;;;;5053352;28;20487;-77
2022/03/11 10:20:35;;;;;;;11.80;9.50;;;21.00;47.60;;;;;;5054158;28;20459;-76
2022/03/11 10:23:08;;;;;;;9.70;8.03;;;21.40;47.50;;;;;;5053333;28;20586;-77
2022/03/11 10:25:35;;;;;;;10.10;8.07;;;21.70;48.30;;;;;;5052261;28;21018;-77
2022/03/11 10:28:03;;;;;;;12.60;8.20;;;22.00;46.60;;;;;;5053971;28;20807;-77
2022/03/11 10:30:31;;;;;;;9.23;8.10;;;22.30;46.60;;;;;;5054572;28;20466;-77
2022/03/11 10:33:00;;;;;;;10.67;8.77;;;21.90;46.90;;;;;;5054462;28;20463;-77
2022/03/11 10:35:31;;;;;;;9.53;7.57;;;22.00;47.60;;;;;;5054083;28;20506;-77
2022/03/11 10:37:59;;;;;;;9.50;8.03;;;22.60;47.60;;;;;;5054110;28;20491;-77
2022/03/11 10:40:28;;;;;;;8.90;7.97;;;23.20;46.50;;;;;;5054678;28;20459;-77
2022/03/11 10:43:20;;;;;;;9.10;8.20;;;23.50;45.60;;;;;;5053802;28;20479;-75
2022/03/11 10:45:52;;;;;;;9.03;8.13;;;23.00;46.40;;;;;;5050121;28;20570;-76
2022/03/11 10:48:40;;;;;;;11.27;8.20;;;23.40;45.50;;;;;;5049469;28;20939;-76
2022/03/11 10:51:11;;;;;;;9.10;8.20;;;23.60;45.50;;;;;;5046779;28;20810;-76
2022/03/11 10:53:39;;;;;;;9.63;8.63;;;23.70;45.90;;;;;;5049924;28;20459;-75
2022/03/11 10:56:07;;;;;;;9.00;8.03;;;23.40;45.50;;;;;;5049247;28;20524;-77
2022/03/11 10:58:36;;;;;;;11.20;9.23;;;23.60;46.90;;;;;;5048962;28;20833;-76
2022/03/11 11:01:03;;;;;;;12.13;8.87;;;23.90;46.80;;;;;;5049685;28;20554;-76
2022/03/11 11:03:30;;;;;;;9.10;8.10;;;24.00;45.60;;;;;;5058672;28;20466;-76
2022/03/11 11:05:58;;;;;;;10.20;8.37;;;23.40;45.10;;;;;;5069309;28;20485;-76
2022/03/11 11:08:25;;;;;;;9.40;8.37;;;22.90;45.30;;;;;;5068661;28;20463;-75
2022/03/11 11:10:52;;;;;;;9.50;8.53;;;22.40;46.20;;;;;;5055340;28;20466;-77
2022/03/11 11:13:20;;;;;;;8.57;7.67;;;22.50;46.00;;;;;;5049893;28;20881;-76
2022/03/11 11:15:47;;;;;;;8.17;7.37;;;23.30;46.90;;;;;;5053717;28;20478;-75
2022/03/11 11:18:15;;;;;;;9.63;8.27;;;24.10;44.70;;;;;;5052946;28;20483;-77
2022/03/11 11:20:47;;;;;;;10.77;8.07;;;23.60;44.80;;;;;;5053838;28;20459;-76
2022/03/11 11:23:16;;;;;;;10.53;8.40;;;23.20;46.70;;;;;;5053827;28;20827;-77
2022/03/11 11:25:44;;;;;;;8.60;7.63;;;23.20;46.40;;;;;;5055079;28;20486;-78
2022/03/11 11:28:16;;;;;;;9.27;8.37;;;23.90;46.80;;;;;;5058373;28;20468;-78
2022/03/11 11:30:44;;;;;;;9.23;8.23;;;24.40;46.10;;;;;;5056976;28;20466;-78
2022/03/11 11:33:12;;;;;;;10.13;8.70;;;25.10;44.60;;;;;;5056974;28;20990;-78
2022/03/11 11:35:40;;;;;;;11.17;7.67;;;25.20;46.20;;;;;;5056964;28;20483;-78
2022/03/11 11:38:28;;;;;;;9.37;8.43;;;25.70;44.90;;;;;;5056943;28;20490;-77
2022/03/11 11:40:55;;;;;;;9.13;7.73;;;26.30;44.40;;;;;;5056138;28;20461;-78
2022/03/11 11:43:28;;;;;;;9.23;7.90;;;26.20;44.20;;;;;;5056237;28;20462;-77
2022/03/11 11:46:14;;;;;;;9.30;8.23;;;26.50;44.40;;;;;;5058101;28;21266;-77
2022/03/11 11:49:01;;;;;;;9.37;8.27;;;26.80;44.20;;;;;;5055816;28;20455;-77
2022/03/11 11:52:01;;;;;;;9.60;8.30;;;26.90;43.70;;;;;;5061541;28;20530;-77
2022/03/11 11:54:42;;;;;;;9.37;8.47;;;26.60;44.40;;;;;;5054542;28;20475;-76
2022/03/11 11:57:20;;;;;;;10.40;8.33;;;26.20;42.60;;;;;;5053420;28;20486;-77
2022/03/11 11:59:46;;;;;;;10.77;9.30;;;26.20;43.60;;;;;;5054348;28;21013;-77
2022/03/11 12:02:36;;;;;;;10.33;8.83;;;25.70;43.90;;;;;;5052671;28;20463;-76
2022/03/11 12:05:51;;;;;;;8.90;8.10;;;25.60;44.50;;;;;;5053269;28;20482;-77
2022/03/11 12:08:48;;;;;;;10.63;8.40;;;26.20;43.90;;;;;;5054217;28;20701;-76
2022/03/11 12:11:40;;;;;;;11.60;8.30;;;25.80;45.10;;;;;;5074022;28;20520;-77
2022/03/11 12:14:07;;;;;;;9.83;8.23;;;25.70;44.50;;;;;;5074405;28;20474;-76
2022/03/11 12:17:02;;;;;;;14.97;9.30;;;26.10;45.00;;;;;;5073849;28;20458;-76
2022/03/11 12:19:47;;;;;;;13.37;8.40;;;26.20;44.30;;;;;;5074488;28;20450;-76
2022/03/11 12:22:30;;;;;;;9.53;8.57;;;26.20;44.30;;;;;;5072523;28;20458;-76
2022/03/11 12:25:02;;;;;;;11.10;9.40;;;26.10;44.60;;;;;;5071671;28;20494;-76
2022/03/11 12:27:58;;;;;;;11.20;8.60;;;26.00;44.20;;;;;;5071310;28;20481;-76
2022/03/11 12:30:24;;;;;;;9.80;8.80;;;26.30;44.30;;;;;;5071520;28;20490;-76
2022/03/11 12:32:52;;;;;;;11.07;8.80;;;26.20;44.50;;;;;;5072166;28;20462;-76
2022/03/11 12:35:22;;;;;;;9.00;8.10;;;26.30;44.30;;;;;;5071779;28;20721;-75
2022/03/11 12:37:49;;;;;;;9.73;8.73;;;26.00;44.80;;;;;;5070684;28;20908;-76
2022/03/11 12:40:16;;;;;;;9.67;8.73;;;25.90;44.60;;;;;;5071952;28;20454;-76
2022/03/11 12:42:43;;;;;;;9.03;8.13;;;26.30;45.50;;;;;;5071511;28;20466;-76
2022/03/11 12:45:11;;;;;;;10.93;9.33;;;26.30;45.00;;;;;;5071448;28;20505;-76
2022/03/11 12:47:39;;;;;;;9.70;8.80;;;26.50;44.60;;;;;;5071102;28;20466;-78